Time;durP1;ratioP1;P1;durP2;ratioP2;P2;SDS_P1;SDS_P2;PMS_P1;PMS_P2;Temp;Humidity;BMP_temperature;BMP_pressure;BME280_temperature;BME280_humidity;BME280_pressure;Samples;Min_cycle;Max_cycle;Signal;HPM_P1;HPM_P2
2022/08/06 00:00:08;;;;;;;0.10;0.10;;;;;;;23.06;55.94;102130.28;5140438;27;20047;-38
2022/08/06 00:02:35;;;;;;;0.10;0.10;;;;;;;23.07;56.13;102140.28;5139162;27;20039;-38
2022/08/06 00:05:03;;;;;;;0.10;0.10;;;;;;;23.07;56.10;102140.28;5142652;27;20047;-38
2022/08/06 00:07:33;;;;;;;0.10;0.10;;;;;;;23.07;56.01;102147.78;5138366;27;20413;-39
2022/08/06 00:10:15;;;;;;;0.10;0.10;;;;;;;23.07;56.06;102143.06;5138268;27;20493;-39
2022/08/06 00:12:40;;;;;;;0.10;0.10;;;;;;;23.07;56.08;102145.00;5139473;27;20115;-37
2022/08/06 00:15:07;;;;;;;0.10;0.10;;;;;;;23.07;56.07;102151.41;5136572;27;20036;-38
2022/08/06 00:17:39;;;;;;;0.10;0.10;;;;;;;23.07;56.06;102156.97;5144119;27;20129;-38
2022/08/06 00:20:06;;;;;;;0.10;0.10;;;;;;;23.07;56.14;102153.34;5139010;27;20101;-37
2022/08/06 00:22:35;;;;;;;0.10;0.10;;;;;;;23.07;56.30;102153.34;5120176;27;20140;-37
2022/08/06 00:25:02;;;;;;;0.10;0.10;;;;;;;23.06;55.97;102155.31;5139531;27;20050;-38
2022/08/06 00:27:27;;;;;;;0.10;0.10;;;;;;;23.07;55.94;102150.56;5140880;27;20035;-36
2022/08/06 00:30:06;;;;;;;0.10;0.10;;;;;;;23.07;56.04;102151.41;5136010;27;20051;-39
2022/08/06 00:32:40;;;;;;;0.10;0.10;;;;;;;23.06;55.63;102149.75;5138281;27;20396;-37
2022/08/06 00:35:06;;;;;;;0.10;0.10;;;;;;;23.07;55.97;102154.19;5139477;27;20039;-37
2022/08/06 00:37:32;;;;;;;0.10;0.10;;;;;;;23.08;55.93;102160.56;5134370;27;20047;-36
2022/08/06 00:40:19;;;;;;;0.10;0.10;;;;;;;23.07;55.97;102154.19;5124361;27;20692;-39
2022/08/06 00:42:50;;;;;;;0.10;0.10;;;;;;;23.07;55.91;102158.91;5137418;27;20040;-38
2022/08/06 00:45:15;;;;;;;0.10;0.10;;;;;;;23.07;55.99;102156.13;5138298;27;20078;-39
2022/08/06 00:47:51;;;;;;;0.10;0.10;;;;;;;23.08;56.00;102155.00;5143942;27;20035;-35
2022/08/06 00:50:30;;;;;;;0.10;0.10;;;;;;;23.08;55.97;102160.56;5143291;27;20047;-37
2022/08/06 00:52:56;;;;;;;0.10;0.10;;;;;;;23.07;55.96;102156.13;5138794;27;20366;-37
2022/08/06 00:55:21;;;;;;;0.10;0.10;;;;;;;23.07;56.00;102162.53;5138546;27;20311;-37
2022/08/06 00:58:01;;;;;;;0.10;0.10;;;;;;;23.07;55.88;102159.75;5143736;27;20045;-37
2022/08/06 01:00:27;;;;;;;0.10;0.10;;;;;;;23.07;55.85;102165.28;5135622;27;20047;-37
2022/08/06 01:02:56;;;;;;;0.10;0.10;;;;;;;23.07;55.99;102168.06;5142987;27;20389;-37
2022/08/06 01:05:21;;;;;;;0.10;0.10;;;;;;;23.07;55.94;102173.63;5142795;27;20055;-38
2022/08/06 01:08:07;;;;;;;0.15;0.15;;;;;;;23.07;56.00;102165.28;5126264;27;20490;-39
2022/08/06 01:10:35;;;;;;;0.10;0.10;;;;;;;23.07;56.04;102176.41;5141634;27;20084;-36
2022/08/06 01:13:09;;;;;;;0.10;0.10;;;;;;;23.07;55.97;102170.03;5139981;27;20042;-37
2022/08/06 01:16:01;;;;;;;0.10;0.10;;;;;;;23.06;55.94;102174.75;5144578;27;20394;-38
2022/08/06 01:18:41;;;;;;;0.10;0.10;;;;;;;23.06;56.18;102180.31;5127019;27;20039;-38
2022/08/06 01:21:45;;;;;;;0.10;0.10;;;;;;;23.07;55.96;102186.69;5111483;27;20500;-37
2022/08/06 01:27:58;;;;;;;0.10;0.10;;;;;;;23.07;55.97;102189.47;5179253;27;20196;-38
2022/08/06 01:30:29;;;;;;;0.10;0.10;;;;;;;23.07;56.22;102181.13;5147951;27;20088;-37
2022/08/06 01:33:04;;;;;;;0.10;0.10;;;;;;;23.07;55.88;102190.31;5133448;27;20507;-39
2022/08/06 01:35:44;;;;;;;0.10;0.10;;;;;;;23.07;55.85;102187.53;5131521;27;20449;-39
2022/08/06 01:38:24;;;;;;;0.10;0.10;;;;;;;23.07;55.93;102181.13;5164883;27;20064;-37
2022/08/06 01:40:50;;;;;;;0.10;0.10;;;;;;;23.07;55.96;102189.47;5164967;27;20134;-39
2022/08/06 01:43:19;;;;;;;0.10;0.10;;;;;;;23.07;56.05;102189.47;5159272;27;20042;-39
2022/08/06 01:46:06;;;;;;;0.00;0.00;;;;;;;23.07;55.80;102195.88;5133730;27;20050;-39
2022/08/06 01:48:34;;;;;;;0.10;0.10;;;;;;;23.07;55.66;102189.47;5133812;27;20407;-37
2022/08/06 01:51:02;;;;;;;0.10;0.10;;;;;;;23.07;55.92;102197.81;5150532;27;20074;-37
2022/08/06 01:53:34;;;;;;;0.10;0.10;;;;;;;23.07;56.13;102201.41;5153503;27;20066;-39
2022/08/06 01:56:20;;;;;;;0.10;0.10;;;;;;;23.06;55.83;102205.31;5121819;27;20050;-39
2022/08/06 01:58:57;;;;;;;0.10;0.10;;;;;;;23.07;55.91;102206.97;5153109;27;20461;-37
2022/08/06 02:01:24;;;;;;;0.10;0.10;;;;;;;23.07;55.90;102206.97;5152461;27;20077;-37
2022/08/06 02:03:51;;;;;;;0.10;0.10;;;;;;;23.07;55.97;102214.47;5151445;27;20042;-39
2022/08/06 02:06:31;;;;;;;0.10;0.10;;;;;;;23.07;55.85;102203.38;5152393;27;20054;-39
2022/08/06 02:08:58;;;;;;;0.10;0.10;;;;;;;23.06;56.00;102210.88;5151482;27;20075;-39
2022/08/06 02:11:43;;;;;;;0.10;0.10;;;;;;;23.06;56.05;102216.44;5151352;27;20058;-37
2022/08/06 02:14:31;;;;;;;0.10;0.10;;;;;;;23.06;55.84;102208.09;5134322;27;20462;-37
2022/08/06 02:16:58;;;;;;;0.10;0.10;;;;;;;23.06;55.93;102219.22;5134980;27;20757;-38
2022/08/06 02:19:42;;;;;;;0.10;0.10;;;;;;;23.07;56.00;102218.09;5147628;27;20567;-37
2022/08/06 02:22:27;;;;;;;0.10;0.10;;;;;;;23.06;55.99;102216.44;5134474;27;20053;-38
2022/08/06 02:25:01;;;;;;;0.10;0.10;;;;;;;23.07;56.06;102220.03;5117551;27;20071;-37
2022/08/06 02:27:28;;;;;;;0.10;0.10;;;;;;;23.06;55.92;102215.56;5150527;27;20051;-38
2022/08/06 02:30:14;;;;;;;0.10;0.10;;;;;;;23.06;55.59;102212.78;5122535;27;20039;-38
2022/08/06 02:32:44;;;;;;;0.10;0.10;;;;;;;23.06;55.90;102218.34;5149449;27;20107;-37
2022/08/06 02:35:12;;;;;;;0.10;0.10;;;;;;;23.06;55.83;102224.75;5148073;27;20043;-37
2022/08/06 02:37:45;;;;;;;0.10;0.10;;;;;;;23.07;55.91;102220.03;5127922;27;20122;-37
2022/08/06 02:40:34;;;;;;;0.10;0.10;;;;;;;23.06;55.91;102222.00;5107280;27;20052;-37
2022/08/06 02:43:08;;;;;;;0.10;0.10;;;;;;;23.06;55.94;102218.34;5139079;27;20134;-39
2022/08/06 02:45:39;;;;;;;0.10;0.10;;;;;;;23.06;56.02;102227.53;5117166;27;20435;-38
2022/08/06 02:51:06;;;;;;;0.10;0.10;;;;;;;23.06;55.88;102235.00;5179295;27;20194;-39
2022/08/06 02:53:59;;;;;;;0.10;0.10;;;;;;;23.06;55.93;102229.47;5152225;27;20095;-39
2022/08/06 02:56:32;;;;;;;0.10;0.10;;;;;;;23.05;55.93;102225.84;5149503;27;20496;-38
2022/08/06 02:58:58;;;;;;;0.10;0.10;;;;;;;23.06;55.94;102229.47;5168433;27;20150;-38
2022/08/06 03:01:30;;;;;;;0.10;0.10;;;;;;;23.05;56.09;102236.97;5149435;27;20049;-39
2022/08/06 03:04:09;;;;;;;0.10;0.10;;;;;;;23.05;55.89;102236.97;5151444;27;20050;-39
2022/08/06 03:06:36;;;;;;;0.10;0.10;;;;;;;23.06;55.88;102240.56;5166726;27;21178;-39
2022/08/06 03:09:04;;;;;;;0.10;0.10;;;;;;;23.06;55.86;102237.78;5167261;27;20039;-40
2022/08/06 03:11:33;;;;;;;0.10;0.10;;;;;;;23.06;55.91;102241.44;5167626;27;20429;-39
2022/08/06 03:14:01;;;;;;;0.10;0.10;;;;;;;23.06;55.88;102244.22;5166705;27;20169;-38
2022/08/06 03:16:29;;;;;;;0.10;0.10;;;;;;;23.07;55.98;102250.59;5165007;27;20134;-37
2022/08/06 03:18:56;;;;;;;0.10;0.10;;;;;;;23.06;55.77;102243.34;5167011;27;20290;-38
2022/08/06 03:21:43;;;;;;;0.10;0.10;;;;;;;23.06;55.80;102246.13;5136894;27;20106;-37
2022/08/06 03:24:23;;;;;;;0.10;0.10;;;;;;;23.05;55.86;102248.06;5167949;27;20176;-39
2022/08/06 03:26:53;;;;;;;0.10;0.10;;;;;;;23.05;55.87;102248.06;5149015;27;20076;-39
2022/08/06 03:29:22;;;;;;;0.10;0.10;;;;;;;23.05;55.84;102245.31;5167161;27;20068;-38
2022/08/06 03:31:48;;;;;;;0.10;0.10;;;;;;;23.05;55.82;102248.06;5167132;27;20038;-39
2022/08/06 03:34:25;;;;;;;0.10;0.10;;;;;;;23.06;55.90;102243.34;5167418;27;20042;-38
2022/08/06 03:36:51;;;;;;;0.10;0.10;;;;;;;23.05;55.78;102242.53;5145972;27;20473;-38
2022/08/06 03:39:17;;;;;;;0.10;0.10;;;;;;;23.05;55.85;102245.31;5166926;27;20158;-38
2022/08/06 03:41:48;;;;;;;0.10;0.10;;;;;;;23.04;55.87;102243.63;5149089;27;20073;-37
2022/08/06 03:44:33;;;;;;;0.10;0.10;;;;;;;23.05;55.85;102248.06;5130763;27;20045;-37
2022/08/06 03:47:06;;;;;;;0.10;0.10;;;;;;;23.04;55.88;102255.59;5144859;27;20050;-39
2022/08/06 03:49:37;;;;;;;0.10;0.10;;;;;;;23.04;55.94;102255.59;5146730;27;20043;-37
2022/08/06 03:52:08;;;;;;;0.10;0.10;;;;;;;23.06;55.85;102263.66;5127970;27;20050;-37
2022/08/06 03:54:48;;;;;;;0.10;0.10;;;;;;;23.05;55.83;102256.41;5146798;27;20617;-37
2022/08/06 03:57:19;;;;;;;0.10;0.10;;;;;;;23.04;55.78;102250.03;5145278;27;20062;-36
2022/08/06 04:00:00;;;;;;;0.10;0.10;;;;;;;23.04;55.79;102257.53;5144497;27;20078;-38
2022/08/06 04:02:29;;;;;;;0.10;0.10;;;;;;;23.04;55.65;102255.59;5115745;27;20047;-38
2022/08/06 04:05:11;;;;;;;0.10;0.10;;;;;;;23.05;55.85;102261.97;5130229;28;20047;-37
2022/08/06 04:07:39;;;;;;;0.10;0.10;;;;;;;23.04;55.88;102261.13;5130773;28;20092;-37
2022/08/06 04:10:23;;;;;;;0.10;0.10;;;;;;;23.04;55.85;102265.88;5131158;28;20039;-38
2022/08/06 04:13:01;;;;;;;0.10;0.10;;;;;;;23.04;55.88;102263.91;5114437;28;20035;-36
2022/08/06 04:15:47;;;;;;;0.10;0.10;;;;;;;23.04;55.57;102263.91;5099924;28;20035;-35
2022/08/06 04:18:15;;;;;;;0.10;0.10;;;;;;;23.03;55.79;102265.03;5132316;28;20126;-37
2022/08/06 04:20:45;;;;;;;0.10;0.10;;;;;;;23.05;55.83;102267.53;5131474;28;20458;-38
2022/08/06 04:23:12;;;;;;;0.10;0.10;;;;;;;23.04;55.82;102272.25;5131223;28;20039;-38
2022/08/06 04:25:42;;;;;;;0.10;0.10;;;;;;;23.04;55.69;102275.03;5113950;28;20051;-37
2022/08/06 04:28:10;;;;;;;0.10;0.10;;;;;;;23.04;55.80;102275.03;5130160;28;20495;-37
2022/08/06 04:30:37;;;;;;;0.10;0.10;;;;;;;23.04;55.84;102279.75;5131647;28;20157;-39
2022/08/06 04:33:05;;;;;;;0.10;0.10;;;;;;;23.04;55.82;102282.53;5131318;28;20099;-38
2022/08/06 04:35:34;;;;;;;0.10;0.10;;;;;;;23.05;55.70;102284.19;5131774;28;20071;-37
2022/08/06 04:38:21;;;;;;;0.10;0.10;;;;;;;23.03;55.78;102281.72;5099677;28;20051;-38
2022/08/06 04:40:56;;;;;;;0.10;0.10;;;;;;;23.04;55.71;102286.16;5098042;28;20146;-36
2022/08/06 04:43:23;;;;;;;0.10;0.10;;;;;;;23.04;55.72;102290.88;5131200;28;20139;-37
2022/08/06 04:46:04;;;;;;;0.10;0.10;;;;;;;23.03;55.70;102283.66;5129883;28;20481;-38
2022/08/06 04:48:45;;;;;;;0.10;0.10;;;;;;;23.04;55.74;102285.31;5115486;28;20047;-37
2022/08/06 04:51:14;;;;;;;0.10;0.10;;;;;;;23.04;55.84;102299.22;5131559;28;20039;-37
2022/08/06 04:53:59;;;;;;;0.10;0.10;;;;;;;23.03;55.79;102297.53;5116130;28;20493;-37
2022/08/06 04:56:25;;;;;;;0.10;0.10;;;;;;;23.04;55.88;102305.59;5130567;28;20035;-37
2022/08/06 04:59:03;;;;;;;0.10;0.10;;;;;;;23.03;55.74;102303.94;5131367;28;20047;-37
2022/08/06 05:01:29;;;;;;;0.10;0.10;;;;;;;23.03;55.84;102303.09;5132028;28;20397;-39
2022/08/06 05:04:06;;;;;;;0.10;0.10;;;;;;;23.03;55.78;102315.06;5130983;28;20138;-36
2022/08/06 05:06:55;;;;;;;0.10;0.10;;;;;;;23.03;55.94;102309.50;5131391;28;20393;-38
2022/08/06 05:09:24;;;;;;;0.10;0.10;;;;;;;23.04;55.77;102310.31;5112738;28;20039;-38
2022/08/06 05:12:16;;;;;;;0.10;0.10;;;;;;;23.04;55.77;102315.88;5129496;27;20043;-38
2022/08/06 05:14:51;;;;;;;0.10;0.10;;;;;;;23.04;55.86;102324.22;5112379;28;20058;-38
2022/08/06 05:17:21;;;;;;;0.10;0.10;;;;;;;23.03;55.63;102317.81;5129806;28;20500;-39
2022/08/06 05:19:56;;;;;;;0.10;0.10;;;;;;;23.03;55.67;102323.38;5130010;28;20047;-38
2022/08/06 05:22:22;;;;;;;0.10;0.10;;;;;;;23.03;55.79;102323.38;5113080;28;20047;-39
2022/08/06 05:25:08;;;;;;;0.10;0.10;;;;;;;23.03;55.63;102325.31;5115079;28;20039;-38
2022/08/06 05:27:48;;;;;;;0.10;0.10;;;;;;;23.03;55.87;102330.88;5113345;28;20080;-37
2022/08/06 05:30:34;;;;;;;0.10;0.10;;;;;;;23.03;55.72;102330.88;5101910;28;20043;-38
2022/08/06 05:33:00;;;;;;;0.10;0.10;;;;;;;23.03;55.91;102333.66;5130668;28;20061;-39
2022/08/06 05:35:28;;;;;;;0.10;0.10;;;;;;;23.04;55.76;102338.09;5130597;28;20142;-38
2022/08/06 05:38:10;;;;;;;0.10;0.10;;;;;;;23.03;55.88;102340.06;5115677;28;20092;-38
2022/08/06 05:40:37;;;;;;;0.10;0.10;;;;;;;23.03;55.70;102342.84;5131660;28;20047;-38
2022/08/06 05:43:22;;;;;;;0.10;0.10;;;;;;;23.03;55.80;102342.84;5130264;28;20062;-37
2022/08/06 05:45:57;;;;;;;0.10;0.10;;;;;;;23.03;55.70;102347.56;5128656;28;20281;-37
2022/08/06 05:48:23;;;;;;;0.10;0.10;;;;;;;23.02;55.70;102343.94;5131222;28;20035;-39
2022/08/06 05:51:01;;;;;;;0.10;0.10;;;;;;;23.03;55.71;102342.84;5129752;28;20142;-37
2022/08/06 05:53:38;;;;;;;0.10;0.10;;;;;;;23.02;55.92;102352.28;5113118;28;20042;-38
2022/08/06 05:56:34;;;;;;;0.10;0.10;;;;;;;23.03;55.71;102353.13;5100880;28;20046;-39
2022/08/06 05:59:10;;;;;;;0.10;0.10;;;;;;;23.04;55.61;102349.22;5112038;28;20047;-39
2022/08/06 06:01:56;;;;;;;0.10;0.10;;;;;;;23.03;55.81;102339.22;5113643;28;20066;-39
2022/08/06 06:04:23;;;;;;;0.10;0.10;;;;;;;23.02;55.69;102357.84;5130889;28;20069;-38
2022/08/06 06:06:59;;;;;;;0.10;0.10;;;;;;;23.02;55.84;102352.28;5130070;28;20066;-38
2022/08/06 06:09:30;;;;;;;0.10;0.10;;;;;;;23.03;55.68;102361.44;5130024;28;20047;-39
2022/08/06 06:12:16;;;;;;;0.10;0.10;;;;;;;23.02;55.81;102355.06;5113018;28;20039;-38
2022/08/06 06:14:57;;;;;;;0.10;0.10;;;;;;;23.03;55.74;102353.13;5129257;27;20035;-37
2022/08/06 06:17:55;;;;;;;0.10;0.10;;;;;;;23.03;55.69;102355.91;5110716;28;20043;-38
2022/08/06 06:20:49;;;;;;;0.10;0.10;;;;;;;23.02;55.61;102354.22;5116856;28;20047;-37
2022/08/06 06:23:46;;;;;;;0.10;0.10;;;;;;;23.01;55.54;102358.97;5088068;27;20051;-39
2022/08/06 06:29:02;;;;;;;0.10;0.10;;;;;;;23.02;55.69;102357.84;5161387;27;20443;-38
2022/08/06 06:32:16;;;;;;;0.10;0.10;;;;;;;23.02;55.71;102357.84;5110469;27;20070;-38
2022/08/06 06:38:09;;;;;;;0.10;0.10;;;;;;;23.01;55.67;102367.28;5174565;27;20202;-39
2022/08/06 06:40:57;;;;;;;0.10;0.10;;;;;;;23.01;55.73;102367.28;5158821;27;20039;-39
2022/08/06 06:44:05;;;;;;;0.10;0.10;;;;;;;23.01;55.65;102367.28;5131370;27;20055;-36
2022/08/06 06:46:51;;;;;;;0.10;0.10;;;;;;;23.03;55.74;102372.56;5137051;27;20057;-37
2022/08/06 06:49:27;;;;;;;0.10;0.10;;;;;;;23.01;55.68;102375.63;5159760;27;20042;-36
2022/08/06 06:52:23;;;;;;;0.10;0.10;;;;;;;23.01;55.67;102378.41;5146618;27;20413;-37
2022/08/06 06:55:02;;;;;;;0.10;0.10;;;;;;;23.02;55.64;102376.47;5160200;27;20047;-40
2022/08/06 06:57:42;;;;;;;0.10;0.10;;;;;;;23.01;55.62;102375.63;5140710;27;20042;-39
2022/08/06 07:00:12;;;;;;;0.10;0.10;;;;;;;23.02;55.72;102379.25;5140481;27;20423;-38
2022/08/06 07:02:59;;;;;;;0.10;0.10;;;;;;;23.01;55.72;102383.97;5144352;27;20043;-38
2022/08/06 07:05:28;;;;;;;0.10;0.10;;;;;;;23.01;55.72;102386.75;5160260;27;20142;-38
2022/08/06 07:08:15;;;;;;;0.10;0.10;;;;;;;23.00;55.79;102387.81;5147778;27;20477;-38
2022/08/06 07:10:55;;;;;;;0.10;0.10;;;;;;;23.01;55.57;102389.53;5142239;27;20053;-39
2022/08/06 07:13:22;;;;;;;0.10;0.10;;;;;;;23.01;55.64;102397.84;5140081;27;20046;-38
2022/08/06 07:16:09;;;;;;;0.10;0.10;;;;;;;23.01;55.80;102405.31;5145796;27;20042;-38
2022/08/06 07:18:55;;;;;;;0.10;0.10;;;;;;;23.01;55.68;102402.53;5145931;27;20055;-37
2022/08/06 07:21:21;;;;;;;0.10;0.10;;;;;;;23.01;55.77;102397.00;5158776;27;20453;-38
2022/08/06 07:23:51;;;;;;;0.10;0.10;;;;;;;23.01;55.57;102399.78;5141365;27;20062;-38
2022/08/06 07:26:37;;;;;;;0.10;0.10;;;;;;;23.01;55.57;102400.63;5112512;27;20054;-37
2022/08/06 07:29:15;;;;;;;0.10;0.10;;;;;;;23.01;55.65;102411.75;5123534;27;20077;-39
2022/08/06 07:32:01;;;;;;;0.10;0.10;;;;;;;23.01;55.67;102406.19;5143315;27;20042;-39
2022/08/06 07:34:27;;;;;;;0.10;0.10;;;;;;;23.01;55.55;102405.31;5159047;27;20070;-37
2022/08/06 07:36:56;;;;;;;0.10;0.10;;;;;;;23.00;55.69;102404.50;5156051;27;20088;-37
2022/08/06 07:39:27;;;;;;;0.10;0.10;;;;;;;23.01;55.69;102408.09;5139393;27;20066;-38
2022/08/06 07:41:59;;;;;;;0.10;0.10;;;;;;;23.01;55.71;102419.22;5158623;27;20499;-38
2022/08/06 07:44:39;;;;;;;0.10;0.10;;;;;;;23.01;55.64;102416.44;5135677;27;20068;-38
2022/08/06 07:47:27;;;;;;;0.10;0.10;;;;;;;23.01;55.90;102414.53;5151207;27;20453;-38
2022/08/06 07:50:11;;;;;;;0.10;0.10;;;;;;;23.01;55.67;102416.44;5104854;27;20473;-39
2022/08/06 07:52:39;;;;;;;0.10;0.10;;;;;;;23.01;55.68;102422.00;5118977;28;20047;-38
2022/08/06 07:55:10;;;;;;;0.10;0.10;;;;;;;23.00;55.62;102409.22;5137778;27;20468;-39
2022/08/06 07:57:36;;;;;;;;;;;;;;;23.01;55.50;102413.66;5141193;27;20085;-38
2022/08/06 08:00:22;;;;;;;0.10;0.10;;;;;;;23.00;55.63;102409.22;5134428;27;19927;-38
2022/08/06 08:08:27;;;;;;;0.10;0.10;;;;;;;23.00;55.78;102415.59;5093166;27;20457;-38
2022/08/06 08:10:53;;;;;;;0.10;0.10;;;;;;;23.00;55.63;102407.28;5138429;27;20480;-38
2022/08/06 08:13:21;;;;;;;0.10;0.10;;;;;;;23.00;55.64;102410.06;5141200;27;20042;-38
2022/08/06 08:16:08;;;;;;;0.10;0.10;;;;;;;23.00;55.66;102410.06;5118802;27;20043;-38
2022/08/06 08:18:34;;;;;;;0.10;0.10;;;;;;;23.00;55.58;102418.38;5139096;27;20083;-38
2022/08/06 08:21:01;;;;;;;0.10;0.10;;;;;;;23.00;55.71;102412.81;5120608;27;20039;-39
2022/08/06 08:23:30;;;;;;;0.10;0.10;;;;;;;23.00;55.63;102415.59;5138870;27;20050;-38
2022/08/06 08:26:04;;;;;;;0.10;0.10;;;;;;;23.00;55.49;102415.59;5117631;27;20047;-37
2022/08/06 08:28:30;;;;;;;0.10;0.10;;;;;;;23.01;55.61;102416.44;5123241;27;20043;-38
2022/08/06 08:30:58;;;;;;;0.10;0.10;;;;;;;23.00;55.62;102410.06;5121069;27;20470;-39
2022/08/06 08:33:25;;;;;;;0.10;0.10;;;;;;;23.00;55.57;102410.06;5116405;27;20081;-38
2022/08/06 08:35:52;;;;;;;0.10;0.10;;;;;;;23.00;55.49;102407.28;5137014;27;20130;-38
2022/08/06 08:38:29;;;;;;;0.10;0.10;;;;;;;23.00;55.70;102412.00;5123209;27;20385;-41
2022/08/06 08:40:55;;;;;;;0.10;0.10;;;;;;;23.01;55.67;102413.66;5118244;27;20325;-40
2022/08/06 08:43:25;;;;;;;0.10;0.10;;;;;;;23.00;55.54;102412.81;5136040;27;20042;-38
2022/08/06 08:46:11;;;;;;;0.10;0.10;;;;;;;23.00;55.58;102412.81;5122050;27;20104;-40
2022/08/06 08:48:37;;;;;;;0.10;0.10;;;;;;;23.01;55.72;102408.09;5134273;27;20112;-40
2022/08/06 08:51:04;;;;;;;0.10;0.10;;;;;;;23.00;55.63;102407.28;5136213;27;20121;-40
2022/08/06 08:53:36;;;;;;;0.10;0.10;;;;;;;23.00;55.58;102410.06;5140111;27;20074;-40
2022/08/06 08:56:12;;;;;;;0.10;0.10;;;;;;;23.00;55.64;102410.06;5135423;27;20139;-40
2022/08/06 08:58:58;;;;;;;0.10;0.10;;;;;;;23.01;55.61;102410.88;5117882;27;20508;-39
2022/08/06 09:01:44;;;;;;;0.10;0.10;;;;;;;22.99;55.62;102402.84;5105205;27;20047;-40
2022/08/06 09:04:22;;;;;;;;;;;;;;;23.00;55.67;102395.31;5135419;27;20122;-40
2022/08/06 09:06:53;;;;;;;0.10;0.10;;;;;;;22.98;55.50;102403.94;5133211;27;19920;-38
2022/08/06 09:09:19;;;;;;;0.10;0.10;;;;;;;23.01;55.55;102410.88;5119050;27;20038;-39
2022/08/06 09:11:56;;;;;;;0.10;0.10;;;;;;;23.00;55.61;102412.00;5133143;27;20538;-40
2022/08/06 09:14:43;;;;;;;0.10;0.10;;;;;;;22.99;55.87;102413.94;5120643;27;20039;-39
2022/08/06 09:17:10;;;;;;;0.10;0.10;;;;;;;23.00;55.67;102406.44;5133350;27;20482;-40
2022/08/06 09:19:38;;;;;;;;;;;;;;;23.00;55.72;102409.22;5122250;27;20168;-38
2022/08/06 09:22:07;;;;;;;0.10;0.10;;;;;;;22.98;55.40;102409.50;5120201;27;19919;-40
2022/08/06 09:24:35;;;;;;;0.10;0.10;;;;;;;22.99;55.59;102413.09;5115754;28;20066;-40
2022/08/06 09:27:06;;;;;;;0.10;0.10;;;;;;;23.00;55.62;102423.13;5116707;27;20043;-39
2022/08/06 09:29:55;;;;;;;0.10;0.10;;;;;;;22.99;55.51;102419.50;5120051;27;20042;-39
2022/08/06 09:32:43;;;;;;;0.10;0.10;;;;;;;22.99;55.56;102418.66;5103641;27;20088;-40
2022/08/06 09:35:24;;;;;;;0.10;0.10;;;;;;;22.99;55.62;102418.66;5133479;27;20505;-39
2022/08/06 09:38:10;;;;;;;0.10;0.10;;;;;;;22.98;55.70;102409.50;5108550;27;20103;-39
2022/08/06 09:41:01;;;;;;;0.10;0.10;;;;;;;22.99;55.47;102419.50;5123495;27;20526;-40
2022/08/06 09:43:28;;;;;;;0.10;0.10;;;;;;;22.99;55.58;102418.66;5136817;27;20039;-39
2022/08/06 09:46:14;;;;;;;0.10;0.10;;;;;;;22.99;55.66;102427.84;5120337;27;20377;-38
2022/08/06 09:48:59;;;;;;;0.10;0.10;;;;;;;22.99;55.66;102419.50;5103631;27;20047;-39
2022/08/06 09:51:45;;;;;;;0.10;0.10;;;;;;;23.00;55.47;102412.00;5107487;27;20051;-39
2022/08/06 09:54:16;;;;;;;0.10;0.10;;;;;;;22.99;55.70;102413.94;5119989;27;20043;-38
2022/08/06 09:56:58;;;;;;;0.10;0.10;;;;;;;22.99;55.74;102413.09;5116932;28;20095;-40
2022/08/06 09:59:23;;;;;;;0.10;0.10;;;;;;;22.99;55.55;102410.34;5134670;27;20501;-39
2022/08/06 10:01:50;;;;;;;0.10;0.10;;;;;;;22.99;55.55;102422.28;5135358;27;20388;-39
2022/08/06 10:04:25;;;;;;;0.10;0.10;;;;;;;23.00;55.50;102417.56;5137104;27;20465;-39
2022/08/06 10:07:03;;;;;;;0.10;0.10;;;;;;;22.99;55.54;102410.34;5105203;27;20046;-40
2022/08/06 10:09:37;;;;;;;0.10;0.10;;;;;;;22.99;55.47;102413.94;5137256;27;20047;-39
2022/08/06 10:12:19;;;;;;;0.10;0.10;;;;;;;22.99;55.62;102424.22;5134094;27;20600;-40
2022/08/06 10:14:45;;;;;;;0.10;0.10;;;;;;;22.99;55.59;102415.88;5131592;27;20457;-39
2022/08/06 10:17:13;;;;;;;0.10;0.10;;;;;;;22.98;55.66;102415.06;5113601;27;20039;-40
2022/08/06 10:19:43;;;;;;;0.10;0.10;;;;;;;23.00;55.61;102417.56;5133262;27;20054;-40
2022/08/06 10:22:18;;;;;;;0.10;0.10;;;;;;;22.98;55.47;102412.28;5117819;27;20039;-40
2022/08/06 10:24:49;;;;;;;0.10;0.10;;;;;;;23.00;55.56;102412.00;5122238;27;20050;-40
2022/08/06 10:27:19;;;;;;;0.10;0.10;;;;;;;22.99;55.55;102413.94;5117702;27;20047;-40
2022/08/06 10:29:54;;;;;;;0.10;0.10;;;;;;;23.00;55.62;102412.00;5119454;27;20050;-39
2022/08/06 10:32:58;;;;;;;0.10;0.10;;;;;;;22.99;55.81;102410.34;5097588;28;20458;-39
2022/08/06 10:35:26;;;;;;;0.10;0.10;;;;;;;22.99;55.65;102413.09;5120989;27;20071;-39
2022/08/06 10:37:58;;;;;;;0.10;0.10;;;;;;;22.98;55.72;102409.50;5113379;27;20129;-38
2022/08/06 10:40:30;;;;;;;0.10;0.10;;;;;;;22.99;55.58;102413.09;5134586;27;20042;-40
2022/08/06 10:42:58;;;;;;;0.13;0.13;;;;;;;22.99;55.62;102404.78;5123350;27;20042;-40
2022/08/06 10:45:26;;;;;;;0.10;0.10;;;;;;;22.98;55.66;102401.16;5116190;27;20046;-35
2022/08/06 10:47:52;;;;;;;0.10;0.10;;;;;;;22.99;55.63;102402.84;5134652;27;20042;-41
2022/08/06 10:50:39;;;;;;;0.10;0.10;;;;;;;22.99;55.54;102396.44;5121342;27;20043;-40
2022/08/06 10:53:20;;;;;;;0.10;0.10;;;;;;;22.99;55.55;102399.22;5135141;27;20043;-40
2022/08/06 10:56:07;;;;;;;0.10;0.10;;;;;;;22.99;55.56;102397.28;5121689;27;20116;-40
2022/08/06 10:58:35;;;;;;;0.10;0.10;;;;;;;23.00;55.76;102398.09;5118187;27;20443;-40
2022/08/06 11:01:05;;;;;;;0.10;0.10;;;;;;;22.99;55.66;102400.06;5120045;27;20047;-37
2022/08/06 11:03:46;;;;;;;0.10;0.10;;;;;;;22.99;55.50;102404.78;5116327;27;20051;-40
2022/08/06 11:06:30;;;;;;;0.10;0.10;;;;;;;22.98;55.49;102394.78;5118151;27;20504;-38
2022/08/06 11:09:35;;;;;;;0.10;0.10;;;;;;;22.99;55.71;102393.66;5133677;27;20043;-40
2022/08/06 11:15:22;;;;;;;0.10;0.10;;;;;;;22.99;55.52;102385.31;5176393;27;20133;-39
2022/08/06 11:17:52;;;;;;;0.10;0.10;;;;;;;22.98;55.63;102381.72;5129560;27;20489;-37
2022/08/06 11:20:39;;;;;;;0.10;0.10;;;;;;;22.99;55.56;102391.72;5135682;27;20503;-37
2022/08/06 11:25:52;;;;;;;0.10;0.10;;;;;;;22.98;55.52;102387.28;5159011;27;20226;-39
2022/08/06 11:28:20;;;;;;;0.10;0.10;;;;;;;22.99;55.64;102391.72;5135177;27;20068;-39
2022/08/06 11:30:49;;;;;;;0.10;0.10;;;;;;;22.99;55.48;102383.38;5160155;27;20095;-39
2022/08/06 11:33:19;;;;;;;0.10;0.10;;;;;;;22.99;55.48;102377.00;5140643;27;20068;-39
2022/08/06 11:35:48;;;;;;;0.10;0.10;;;;;;;22.99;55.59;102379.78;5140598;27;20094;-39
2022/08/06 11:38:52;;;;;;;0.10;0.10;;;;;;;22.99;55.46;102377.81;5157661;27;20134;-38
2022/08/06 11:41:26;;;;;;;0.10;0.10;;;;;;;22.99;55.59;102374.22;5148044;27;20055;-39
2022/08/06 11:44:15;;;;;;;0.10;0.10;;;;;;;22.98;55.62;102373.38;5119962;27;20046;-37
2022/08/06 11:46:45;;;;;;;0.10;0.10;;;;;;;22.99;55.41;102368.66;5138820;27;20081;-37
2022/08/06 11:49:18;;;;;;;0.10;0.10;;;;;;;22.98;55.68;102378.94;5144920;27;20166;-38
2022/08/06 11:51:54;;;;;;;0.10;0.10;;;;;;;22.98;55.65;102376.16;5135352;27;20051;-39
2022/08/06 11:54:36;;;;;;;0.10;0.10;;;;;;;22.98;55.60;102375.34;5115974;27;20051;-39
2022/08/06 12:00:00;;;;;;;0.10;0.10;;;;;;;22.99;55.64;102377.00;5156105;27;20133;-39
2022/08/06 12:02:46;;;;;;;0.10;0.10;;;;;;;22.98;55.70;102370.59;5153396;27;20070;-39
2022/08/06 12:08:14;;;;;;;0.10;0.10;;;;;;;22.98;55.66;102367.81;5162597;27;20197;-40
2022/08/06 12:11:29;;;;;;;0.10;0.10;;;;;;;22.98;55.65;102362.28;5127493;27;20058;-37
2022/08/06 12:14:02;;;;;;;0.10;0.10;;;;;;;22.98;55.70;102362.28;5121806;27;20126;-37
2022/08/06 12:16:48;;;;;;;0.10;0.10;;;;;;;22.97;55.59;102355.06;5135501;27;20047;-37
2022/08/06 12:19:20;;;;;;;0.10;0.10;;;;;;;22.98;55.51;102358.66;5152276;27;20051;-37
2022/08/06 12:21:51;;;;;;;0.10;0.10;;;;;;;22.99;55.40;102358.38;5152597;27;20087;-37
2022/08/06 12:24:23;;;;;;;0.10;0.10;;;;;;;22.98;55.52;102351.16;5114742;27;20046;-37
2022/08/06 12:26:50;;;;;;;0.10;0.10;;;;;;;22.99;55.60;102346.44;5133716;27;20049;-39
2022/08/06 12:29:16;;;;;;;0.10;0.10;;;;;;;22.98;55.59;102340.03;5153471;27;20391;-39
2022/08/06 12:31:42;;;;;;;0.10;0.10;;;;;;;23.00;55.69;102342.53;5153639;27;20511;-37
2022/08/06 12:34:25;;;;;;;0.10;0.10;;;;;;;22.99;55.37;102354.75;5152870;27;20043;-37